createdAt,value
2019-06-07T00:00:41.230Z,6.40
2019-06-07T00:03:15.770Z,6.03
2019-06-07T00:05:40.867Z,6.77
2019-06-07T00:08:17.216Z,7.30
2019-06-07T00:10:40.694Z,9.50
2019-06-07T00:13:09.790Z,6.93
2019-06-07T00:15:39.234Z,7.93
2019-06-07T00:18:13.524Z,7.37
2019-06-07T00:20:38.778Z,6.77
2019-06-07T00:23:08.606Z,6.63
2019-06-07T00:25:38.497Z,5.47
2019-06-07T00:28:08.209Z,6.67
2019-06-07T00:30:50.870Z,7.83
2019-06-07T00:33:11.013Z,5.87
2019-06-07T00:35:39.142Z,6.50
2019-06-07T00:38:09.156Z,7.17
2019-06-07T00:40:38.236Z,5.37
2019-06-07T00:43:07.222Z,5.60
2019-06-07T00:45:36.114Z,6.93
2019-06-07T00:48:05.218Z,6.10
2019-06-07T00:50:34.087Z,6.37
2019-06-07T00:53:28.656Z,6.90
2019-06-07T00:55:33.984Z,6.63
2019-06-07T00:58:02.804Z,5.87
2019-06-07T01:00:31.779Z,6.03
2019-06-07T01:03:00.886Z,6.53
2019-06-07T01:05:31.555Z,6.10
2019-06-07T01:08:02.221Z,7.37
2019-06-07T01:10:52.488Z,5.57
2019-06-07T01:13:01.778Z,5.80
2019-06-07T01:15:30.729Z,6.00
2019-06-07T01:18:33.923Z,5.37
2019-06-07T01:20:30.379Z,6.47
2019-06-07T01:22:59.146Z,6.77
2019-06-07T01:25:28.938Z,5.30
2019-06-07T01:27:58.117Z,5.13
2019-06-07T01:30:29.239Z,5.50
2019-06-07T01:32:58.706Z,5.30
2019-06-07T01:35:29.574Z,5.07
2019-06-07T01:37:58.474Z,5.70
2019-06-07T01:40:30.470Z,5.23
2019-06-07T01:42:57.887Z,5.87
2019-06-07T01:45:30.636Z,5.70
2019-06-07T01:47:57.802Z,5.83
2019-06-07T01:50:27.198Z,6.63
2019-06-07T01:52:56.239Z,5.70
2019-06-07T01:55:29.209Z,4.93
2019-06-07T01:57:56.445Z,5.80
2019-06-07T02:00:26.560Z,5.63
2019-06-07T02:02:55.962Z,5.97
2019-06-07T02:05:28.442Z,4.83
2019-06-07T02:07:55.746Z,6.07
2019-06-07T02:10:29.840Z,5.37
2019-06-07T02:12:55.618Z,6.53
2019-06-07T02:15:27.565Z,5.60
2019-06-07T02:17:55.176Z,5.47
2019-06-07T02:20:28.570Z,6.00
2019-06-07T02:22:54.580Z,5.57
2019-06-07T02:25:48.589Z,6.13
2019-06-07T02:28:11.020Z,6.27
2019-06-07T02:30:40.744Z,6.23
2019-06-07T02:32:55.498Z,6.20
2019-06-07T02:35:27.135Z,7.63
2019-06-07T02:37:55.157Z,6.13
2019-06-07T02:40:26.773Z,6.57
2019-06-07T02:42:54.754Z,6.27
2019-06-07T02:45:24.813Z,7.33
2019-06-07T02:47:54.455Z,7.10
2019-06-07T02:50:25.589Z,6.47
2019-06-07T02:52:54.133Z,7.17
2019-06-07T02:55:27.319Z,7.73
2019-06-07T02:57:53.783Z,7.13
2019-06-07T03:01:00.420Z,6.57
2019-06-07T03:03:13.930Z,7.77
2019-06-07T03:05:44.076Z,7.47
2019-06-07T03:08:14.324Z,7.77
2019-06-07T03:10:45.429Z,7.87
2019-06-07T03:13:19.707Z,7.23
2019-06-07T03:15:50.213Z,6.67
2019-06-07T03:18:41.246Z,7.30
2019-06-07T03:21:12.954Z,6.53
2019-06-07T03:23:41.914Z,8.37
2019-06-07T03:26:10.798Z,6.73
2019-06-07T03:28:41.668Z,7.53
2019-06-07T03:31:10.493Z,6.10
2019-06-07T03:33:44.455Z,7.97
2019-06-07T03:36:23.371Z,7.83
2019-06-07T03:38:40.661Z,6.67
2019-06-07T03:41:09.532Z,6.77
2019-06-07T03:43:40.611Z,8.83
2019-06-07T03:46:09.004Z,7.43
2019-06-07T03:48:41.027Z,8.83
2019-06-07T03:51:24.059Z,6.73
2019-06-07T03:53:40.824Z,6.63
2019-06-07T03:56:10.174Z,6.90
2019-06-07T03:58:49.217Z,9.07
2019-06-07T04:01:09.875Z,8.20
2019-06-07T04:03:46.905Z,7.40
2019-06-07T04:06:09.273Z,7.13
2019-06-07T04:08:41.337Z,7.90
2019-06-07T04:11:08.808Z,8.20
2019-06-07T04:13:42.568Z,7.00
2019-06-07T04:16:08.550Z,7.27
2019-06-07T04:18:41.441Z,8.40
2019-06-07T04:21:08.886Z,7.33
2019-06-07T04:23:44.895Z,7.57
2019-06-07T04:26:08.595Z,8.53
2019-06-07T04:31:08.072Z,8.20
2019-06-07T04:33:39.756Z,8.30
2019-06-07T04:36:08.649Z,7.50
2019-06-07T04:38:40.550Z,8.37
2019-06-07T04:41:09.750Z,8.63
2019-06-07T04:43:41.258Z,8.70
2019-06-07T04:46:12.035Z,9.60
2019-06-07T04:48:43.828Z,8.03
2019-06-07T04:51:15.044Z,7.20
2019-06-07T04:53:44.132Z,7.53
2019-06-07T04:56:13.175Z,7.63
2019-06-07T04:58:43.246Z,7.77
2019-06-07T05:01:26.714Z,7.67
2019-06-07T05:03:44.252Z,7.90
2019-06-07T05:06:13.663Z,8.03
2019-06-07T05:08:43.959Z,8.33
2019-06-07T05:11:13.153Z,8.27
2019-06-07T05:13:43.802Z,7.77
2019-06-07T05:16:12.692Z,8.23
2019-06-07T05:18:43.290Z,11.73
2019-06-07T05:21:17.667Z,8.07
2019-06-07T05:26:17.607Z,8.10
2019-06-07T05:28:46.414Z,10.57
2019-06-07T05:31:15.505Z,8.77
2019-06-07T05:33:44.318Z,8.67
2019-06-07T05:36:13.245Z,8.73
2019-06-07T05:38:44.727Z,8.63
2019-06-07T05:41:12.963Z,9.40
2019-06-07T05:43:49.452Z,8.90
2019-06-07T05:46:12.524Z,8.10
2019-06-07T05:48:42.425Z,8.77
2019-06-07T05:51:12.546Z,9.93
2019-06-07T05:53:43.167Z,8.83
2019-06-07T05:56:13.220Z,10.27
2019-06-07T05:58:44.552Z,8.87
2019-06-07T06:01:42.290Z,10.63
2019-06-07T06:03:46.452Z,9.43
2019-06-07T06:06:14.483Z,8.87
2019-06-07T06:08:45.324Z,10.47
2019-06-07T06:11:13.906Z,9.77
2019-06-07T06:14:01.548Z,9.70
2019-06-07T06:16:13.383Z,9.67
2019-06-07T06:18:44.332Z,9.57
2019-06-07T06:21:19.241Z,9.93
2019-06-07T06:23:45.834Z,8.97
2019-06-07T06:26:14.518Z,11.67
2019-06-07T06:28:45.390Z,11.07
2019-06-07T06:31:14.804Z,9.57
2019-06-07T06:33:45.202Z,10.57
2019-06-07T06:36:14.504Z,9.23
2019-06-07T06:38:43.913Z,8.20
2019-06-07T06:41:16.330Z,9.37
2019-06-07T06:43:46.772Z,9.57
2019-06-07T06:46:31.790Z,10.67
2019-06-07T06:48:51.726Z,9.43
2019-06-07T06:51:16.518Z,9.23
2019-06-07T06:53:46.892Z,8.60
2019-06-07T06:56:16.321Z,7.77
2019-06-07T06:59:30.696Z,7.77
2019-06-07T07:01:16.489Z,10.25
2019-06-07T07:04:09.544Z,8.03
2019-06-07T07:06:25.988Z,7.95
2019-06-07T07:08:53.111Z,9.15
2019-06-07T07:11:23.230Z,10.88
2019-06-07T07:13:56.190Z,8.18
2019-06-07T07:16:23.572Z,7.10
2019-06-07T07:18:54.527Z,7.40
2019-06-07T07:21:23.050Z,7.53
2019-06-07T07:24:14.722Z,6.70
2019-06-07T07:26:22.548Z,7.78
2019-06-07T07:28:55.266Z,8.13
2019-06-07T07:31:22.028Z,7.72
2019-06-07T07:36:38.070Z,8.35
2019-06-07T07:39:00.639Z,9.85
2019-06-07T07:41:23.179Z,8.35
2019-06-07T07:44:04.338Z,7.47
2019-06-07T07:46:29.558Z,8.83
2019-06-07T07:48:54.677Z,7.83
2019-06-07T07:51:24.298Z,7.67
2019-06-07T07:54:09.338Z,7.20
2019-06-07T07:56:23.871Z,4.95
2019-06-07T07:58:57.964Z,5.75
2019-06-07T08:01:23.246Z,7.35
2019-06-07T08:03:54.898Z,7.42
2019-06-07T08:06:22.735Z,6.67
2019-06-07T08:08:53.789Z,5.90
2019-06-07T08:11:22.422Z,6.67
2019-06-07T08:13:52.975Z,5.62
2019-06-07T08:16:21.967Z,5.45
2019-06-07T08:18:54.719Z,5.97
2019-06-07T08:21:26.243Z,5.00
2019-06-07T08:23:58.376Z,6.37
2019-06-07T08:26:23.298Z,7.37
2019-06-07T08:28:54.709Z,4.78
2019-06-07T08:31:22.981Z,8.35
2019-06-07T08:33:52.782Z,5.97
2019-06-07T08:36:40.831Z,7.10
2019-06-07T08:38:59.784Z,4.72
2019-06-07T08:41:23.954Z,5.50
2019-06-07T08:43:55.336Z,4.35
2019-06-07T08:46:23.712Z,5.87
2019-06-07T08:48:53.946Z,4.85
2019-06-07T08:51:23.473Z,5.08
2019-06-07T08:54:08.434Z,9.35
2019-06-07T08:56:23.088Z,5.22
2019-06-07T08:58:54.953Z,7.80
2019-06-07T09:01:22.857Z,3.98
2019-06-07T09:03:52.099Z,4.35
2019-06-07T09:08:53.803Z,4.50
2019-06-07T09:11:23.722Z,4.47
2019-06-07T09:13:54.479Z,4.55
2019-06-07T09:16:23.716Z,5.15
2019-06-07T09:18:56.069Z,6.15
2019-06-07T09:21:23.505Z,4.30
2019-06-07T09:23:52.317Z,5.50
2019-06-07T09:26:21.713Z,3.83
2019-06-07T09:28:50.918Z,5.12
2019-06-07T09:31:20.132Z,3.45
2019-06-07T09:33:48.949Z,4.15
2019-06-07T09:36:17.870Z,4.05
2019-06-07T09:38:47.679Z,3.58
2019-06-07T09:41:16.570Z,3.80
2019-06-07T09:44:14.206Z,5.75
2019-06-07T09:46:16.939Z,3.30
2019-06-07T09:49:14.097Z,4.45
2019-06-07T09:51:20.268Z,5.87
2019-06-07T09:53:47.904Z,3.75
2019-06-07T09:56:16.705Z,4.60
2019-06-07T09:58:52.701Z,4.05
2019-06-07T10:01:16.319Z,4.55
2019-06-07T10:03:45.671Z,4.50
2019-06-07T10:06:14.573Z,5.05
2019-06-07T10:11:15.799Z,3.83
2019-06-07T10:13:44.982Z,6.20
2019-06-07T10:16:13.869Z,5.67
2019-06-07T10:18:43.251Z,5.90
2019-06-07T10:21:14.973Z,4.12
2019-06-07T10:23:43.162Z,4.60
2019-06-07T10:26:12.225Z,4.70
2019-06-07T10:28:41.122Z,4.50
2019-06-07T10:31:11.469Z,6.30
2019-06-07T10:33:40.824Z,3.92
2019-06-07T10:36:10.748Z,4.20
2019-06-07T10:38:40.018Z,4.35
2019-06-07T10:41:08.980Z,3.55
2019-06-07T10:43:37.821Z,4.37
2019-06-07T10:46:07.630Z,4.12
2019-06-07T10:48:37.080Z,3.60
2019-06-07T10:51:06.211Z,3.75
2019-06-07T10:53:35.357Z,4.58
2019-06-07T10:56:04.853Z,6.92
2019-06-07T10:58:33.815Z,3.25
2019-06-07T11:01:03.377Z,5.75
2019-06-07T11:03:32.880Z,3.85
2019-06-07T11:06:01.941Z,3.50
2019-06-07T11:08:30.769Z,5.00
2019-06-07T11:10:59.609Z,4.30
2019-06-07T11:13:28.440Z,3.17
2019-06-07T11:15:57.297Z,3.65
2019-06-07T11:18:26.200Z,4.90
2019-06-07T11:20:55.162Z,5.70
2019-06-07T11:23:24.080Z,3.60
2019-06-07T11:25:53.290Z,4.85
2019-06-07T11:28:22.478Z,4.03
2019-06-07T11:30:51.463Z,3.77
2019-06-07T11:33:20.328Z,3.33
2019-06-07T11:35:49.249Z,3.58
2019-06-07T11:38:18.779Z,4.00
2019-06-07T11:40:47.862Z,3.70
2019-06-07T11:43:17.135Z,3.58
2019-06-07T11:45:46.438Z,3.87
2019-06-07T11:48:15.790Z,4.60
2019-06-07T11:50:44.735Z,5.42
2019-06-07T11:53:14.650Z,4.60
2019-06-07T11:55:44.036Z,4.50
2019-06-07T11:58:16.468Z,3.40
2019-06-07T12:00:43.797Z,3.52
2019-06-07T12:03:13.833Z,4.62
2019-06-07T12:05:42.793Z,4.67
2019-06-07T12:08:11.948Z,4.03
2019-06-07T12:10:42.747Z,4.22
2019-06-07T12:13:12.600Z,5.08
2019-06-07T12:15:41.487Z,3.85
2019-06-07T12:18:11.258Z,3.05
2019-06-07T12:20:40.473Z,3.85
2019-06-07T12:23:10.025Z,3.20
2019-06-07T12:25:39.146Z,5.22
2019-06-07T12:28:08.045Z,3.27
2019-06-07T12:30:36.952Z,3.98
2019-06-07T12:33:05.943Z,5.87
2019-06-07T12:35:35.017Z,4.17
2019-06-07T12:38:04.561Z,2.50
2019-06-07T12:40:33.621Z,3.22
2019-06-07T12:43:02.540Z,3.52
2019-06-07T12:45:44.233Z,3.42
2019-06-07T12:48:02.797Z,3.47
2019-06-07T12:50:42.698Z,4.15
2019-06-07T12:53:03.665Z,4.72
2019-06-07T12:55:33.070Z,3.17
2019-06-07T12:58:02.027Z,3.35
2019-06-07T13:00:31.349Z,3.62
2019-06-07T13:03:00.408Z,5.30
2019-06-07T13:05:29.470Z,7.00
2019-06-07T13:07:58.462Z,3.25
2019-06-07T13:10:28.513Z,3.33
2019-06-07T13:12:57.767Z,6.05
2019-06-07T13:15:28.203Z,4.42
2019-06-07T13:17:57.395Z,4.37
2019-06-07T13:20:26.506Z,3.60
2019-06-07T13:22:55.409Z,3.22
2019-06-07T13:25:35.002Z,4.53
2019-06-07T13:27:55.168Z,4.40
2019-06-07T13:30:25.560Z,3.85
2019-06-07T13:32:54.806Z,4.15
2019-06-07T13:35:23.832Z,3.72
2019-06-07T13:37:53.281Z,3.62
2019-06-07T13:40:23.141Z,5.40
2019-06-07T13:42:52.624Z,4.10
2019-06-07T13:45:22.385Z,3.65
2019-06-07T13:47:51.662Z,3.35
2019-06-07T13:50:21.753Z,7.42
2019-06-07T13:52:50.808Z,3.52
2019-06-07T13:55:20.187Z,3.27
2019-06-07T13:57:49.122Z,3.35
2019-06-07T14:00:19.039Z,3.65
2019-06-07T14:02:49.792Z,4.87
2019-06-07T14:05:18.938Z,3.80
2019-06-07T14:07:47.837Z,3.05
2019-06-07T14:10:17.184Z,7.35
2019-06-07T14:12:46.016Z,4.75
2019-06-07T14:15:15.323Z,3.25
2019-06-07T14:17:44.327Z,3.77
2019-06-07T14:20:13.907Z,3.30
2019-06-07T14:22:43.233Z,3.90
2019-06-07T14:25:12.387Z,3.00
2019-06-07T14:27:41.413Z,4.75
2019-06-07T14:30:11.147Z,3.10
2019-06-07T14:32:40.203Z,3.47
2019-06-07T14:35:09.652Z,4.00
2019-06-07T14:37:38.598Z,3.70
2019-06-07T14:40:07.759Z,2.98
2019-06-07T14:42:36.736Z,4.85
2019-06-07T14:45:08.675Z,4.10
2019-06-07T14:47:39.792Z,4.03
2019-06-07T14:50:09.211Z,3.87
2019-06-07T14:52:38.222Z,3.15
2019-06-07T14:55:08.407Z,4.92
2019-06-07T14:57:37.612Z,3.77
2019-06-07T15:00:11.191Z,3.85
2019-06-07T15:02:41.671Z,6.58
2019-06-07T15:05:11.923Z,4.45
2019-06-07T15:07:40.936Z,4.25
2019-06-07T15:10:10.291Z,4.22
2019-06-07T15:12:40.088Z,4.20
2019-06-07T15:15:09.457Z,4.00
2019-06-07T15:17:39.210Z,4.08
2019-06-07T15:20:08.452Z,7.00
2019-06-07T15:22:38.768Z,6.90
2019-06-07T15:25:08.601Z,3.58
2019-06-07T15:27:37.873Z,3.77
2019-06-07T15:30:10.539Z,3.30
2019-06-07T15:32:39.452Z,3.55
2019-06-07T15:35:09.398Z,4.45
2019-06-07T15:40:08.706Z,5.40
2019-06-07T15:42:51.505Z,4.17
2019-06-07T15:45:08.709Z,5.28
2019-06-07T15:47:38.363Z,4.60
2019-06-07T15:50:08.817Z,6.10
2019-06-07T15:52:38.347Z,4.95
2019-06-07T15:55:08.595Z,4.30
2019-06-07T15:57:37.477Z,4.85
2019-06-07T16:00:07.970Z,3.98
2019-06-07T16:02:37.566Z,4.55
2019-06-07T16:05:06.863Z,4.58
2019-06-07T16:07:36.233Z,3.60
2019-06-07T16:10:06.111Z,3.12
2019-06-07T16:12:34.993Z,4.45
2019-06-07T16:15:04.715Z,9.68
2019-06-07T16:17:35.086Z,4.72
2019-06-07T16:20:04.982Z,3.47
2019-06-07T16:22:33.911Z,4.42
2019-06-07T16:25:02.887Z,8.10
2019-06-07T16:27:31.769Z,5.22
2019-06-07T16:30:08.762Z,5.00
2019-06-07T16:32:31.177Z,8.38
2019-06-07T16:35:00.121Z,5.87
2019-06-07T16:37:29.099Z,4.25
2019-06-07T16:39:58.245Z,9.90
2019-06-07T16:42:27.121Z,6.45
2019-06-07T16:44:56.106Z,7.62
2019-06-07T16:47:25.040Z,5.20
2019-06-07T16:49:54.074Z,3.65
2019-06-07T16:52:23.030Z,3.72
2019-06-07T16:54:51.881Z,4.25
2019-06-07T16:57:20.746Z,5.67
2019-06-07T16:59:50.843Z,5.03
2019-06-07T17:02:20.121Z,3.67
2019-06-07T17:04:48.888Z,4.25
2019-06-07T17:07:17.834Z,3.10
2019-06-07T17:09:47.781Z,2.72
2019-06-07T17:12:17.338Z,3.52
2019-06-07T17:14:46.610Z,3.67
2019-06-07T17:17:15.745Z,5.85
2019-06-07T17:19:45.151Z,3.42
2019-06-07T17:22:14.038Z,5.97
2019-06-07T17:24:43.346Z,5.42
2019-06-07T17:27:12.322Z,4.90
2019-06-07T17:29:43.590Z,3.05
2019-06-07T17:32:15.921Z,5.12
2019-06-07T17:34:44.334Z,8.58
2019-06-07T17:37:13.243Z,6.47
2019-06-07T17:39:43.442Z,7.08
2019-06-07T17:42:12.778Z,10.08
2019-06-07T17:44:42.835Z,5.00
2019-06-07T17:47:11.861Z,3.65
2019-06-07T17:49:41.733Z,6.12
2019-06-07T17:52:10.763Z,11.00
2019-06-07T17:54:39.603Z,11.05
2019-06-07T17:57:09.000Z,5.45
2019-06-07T17:59:37.803Z,2.55
2019-06-07T18:02:14.795Z,7.65
2019-06-07T18:04:38.310Z,3.47
2019-06-07T18:07:08.926Z,4.05
2019-06-07T18:09:39.222Z,4.40
2019-06-07T18:12:08.289Z,8.08
2019-06-07T18:14:37.438Z,4.75
2019-06-07T18:17:06.317Z,1.72
2019-06-07T18:19:36.146Z,6.33
2019-06-07T18:22:05.748Z,6.65
2019-06-07T18:24:34.721Z,3.45
2019-06-07T18:27:06.984Z,6.08
2019-06-07T18:29:34.286Z,4.80
2019-06-07T18:32:03.265Z,3.02
2019-06-07T18:34:32.148Z,3.20
2019-06-07T18:37:01.079Z,2.55
2019-06-07T18:39:30.226Z,2.37
2019-06-07T18:41:59.634Z,5.28
2019-06-07T18:44:28.609Z,4.53
2019-06-07T18:46:58.488Z,2.27
2019-06-07T18:49:27.429Z,4.22
2019-06-07T18:52:13.755Z,1.92
2019-06-07T18:54:42.934Z,4.15
2019-06-07T18:57:12.516Z,9.03
2019-06-07T18:59:41.837Z,1.02
2019-06-07T19:02:10.769Z,3.05
2019-06-07T19:04:39.672Z,4.00
2019-06-07T19:07:08.547Z,1.05
2019-06-07T19:09:37.352Z,3.90
2019-06-07T19:12:06.291Z,2.72
2019-06-07T19:14:37.388Z,2.52
2019-06-07T19:17:05.964Z,1.70
2019-06-07T19:19:34.870Z,0.82
2019-06-07T19:22:03.653Z,4.28
2019-06-07T19:24:32.618Z,0.93
2019-06-07T19:27:01.470Z,2.95
2019-06-07T19:29:30.253Z,1.75
2019-06-07T19:31:59.124Z,2.45
2019-06-07T19:34:27.942Z,4.45
2019-06-07T19:36:57.796Z,1.15
2019-06-07T19:39:26.761Z,1.92
2019-06-07T19:41:55.919Z,1.55
2019-06-07T19:44:24.940Z,2.22
2019-06-07T19:46:54.344Z,1.27
2019-06-07T19:49:23.436Z,3.77
2019-06-07T19:51:52.862Z,3.02
2019-06-07T19:54:21.674Z,1.53
2019-06-07T19:56:50.623Z,2.20
2019-06-07T19:59:19.849Z,2.05
2019-06-07T20:01:48.920Z,1.43
2019-06-07T20:04:17.721Z,2.67
2019-06-07T20:06:46.575Z,3.00
2019-06-07T20:09:15.475Z,1.52
2019-06-07T20:11:44.296Z,1.30
2019-06-07T20:14:13.253Z,3.10
2019-06-07T20:16:42.224Z,1.93
2019-06-07T20:19:11.142Z,1.72
2019-06-07T20:21:40.040Z,0.87
2019-06-07T20:24:24.734Z,1.10
2019-06-07T20:26:39.576Z,1.07
2019-06-07T20:29:24.966Z,1.43
2019-06-07T20:31:39.068Z,1.93
2019-06-07T20:34:09.055Z,2.07
2019-06-07T20:36:38.360Z,2.30
2019-06-07T20:39:08.304Z,1.37
2019-06-07T20:41:37.665Z,2.30
2019-06-07T20:44:07.958Z,0.68
2019-06-07T20:46:36.996Z,0.80
2019-06-07T20:49:06.509Z,0.80
2019-06-07T20:51:35.585Z,0.87
2019-06-07T20:54:05.498Z,1.60
2019-06-07T20:56:35.539Z,1.90
2019-06-07T20:59:05.164Z,3.40
2019-06-07T21:01:34.307Z,1.20
2019-06-07T21:04:03.238Z,1.10
2019-06-07T21:06:32.565Z,1.53
2019-06-07T21:09:01.559Z,1.47
2019-06-07T21:11:30.745Z,1.80
2019-06-07T21:13:59.913Z,2.60
2019-06-07T21:16:28.950Z,3.27
2019-06-07T21:18:57.747Z,1.57
2019-06-07T21:21:27.300Z,3.53
2019-06-07T21:23:56.496Z,1.13
2019-06-07T21:26:25.558Z,2.63
2019-06-07T21:28:54.399Z,1.13
2019-06-07T21:31:23.624Z,2.47
2019-06-07T21:33:52.449Z,2.90
2019-06-07T21:36:21.583Z,1.80
2019-06-07T21:38:50.472Z,1.73
2019-06-07T21:41:19.662Z,1.57
2019-06-07T21:43:48.573Z,2.00
2019-06-07T21:46:20.530Z,9.37
2019-06-07T21:48:47.989Z,0.90
2019-06-07T21:51:16.806Z,2.07
2019-06-07T21:53:45.943Z,2.23
2019-06-07T21:56:14.868Z,1.17
2019-06-07T21:58:44.126Z,1.37
2019-06-07T22:01:21.859Z,1.10
2019-06-07T22:03:50.937Z,2.40
2019-06-07T22:06:19.912Z,3.43
2019-06-07T22:09:09.758Z,2.53
2019-06-07T22:11:39.064Z,3.30
2019-06-07T22:14:08.470Z,0.90
2019-06-07T22:16:37.456Z,1.43
2019-06-07T22:19:06.610Z,2.23
2019-06-07T22:21:36.082Z,2.40
2019-06-07T22:24:04.952Z,1.70
2019-06-07T22:26:33.846Z,1.73
2019-06-07T22:29:02.859Z,2.17
2019-06-07T22:31:31.698Z,2.13
2019-06-07T22:34:00.509Z,0.70
2019-06-07T22:36:29.690Z,1.90
2019-06-07T22:38:58.505Z,2.27
2019-06-07T22:41:27.444Z,1.13
2019-06-07T22:43:56.499Z,2.13
2019-06-07T22:46:36.922Z,1.03
2019-06-07T22:48:56.044Z,1.50
2019-06-07T22:51:24.935Z,1.20
2019-06-07T22:53:53.750Z,2.47
2019-06-07T22:56:30.769Z,0.90
2019-06-07T22:58:59.561Z,3.30
2019-06-07T23:01:28.441Z,4.07
2019-06-07T23:03:57.722Z,1.47
2019-06-07T23:06:26.615Z,1.40
2019-06-07T23:08:55.439Z,1.50
2019-06-07T23:11:25.010Z,0.57
2019-06-07T23:13:53.923Z,1.70
2019-06-07T23:16:22.738Z,1.53
2019-06-07T23:18:51.605Z,2.10
2019-06-07T23:21:20.447Z,3.43
2019-06-07T23:23:49.911Z,1.13
2019-06-07T23:26:18.786Z,3.10
2019-06-07T23:28:48.083Z,1.90
2019-06-07T23:31:16.898Z,0.73
2019-06-07T23:33:45.690Z,3.03
2019-06-07T23:36:15.089Z,2.83
2019-06-07T23:38:43.985Z,2.33
2019-06-07T23:41:13.256Z,1.60
2019-06-07T23:43:42.100Z,2.13
2019-06-07T23:46:11.408Z,0.70
2019-06-07T23:48:40.366Z,1.47
2019-06-07T23:51:09.489Z,1.60
2019-06-07T23:53:38.540Z,2.97
2019-06-07T23:56:07.406Z,4.13
2019-06-07T23:58:36.281Z,1.57
